sensor_id;sensor_type;location;lat;lon;timestamp;temperature;humidity
18773;DHT22;9515;50.810;4.418;2022-09-03T00:02:39;22.90;99.90
18773;DHT22;9515;50.810;4.418;2022-09-03T00:05:25;22.90;99.90
18773;DHT22;9515;50.810;4.418;2022-09-03T00:08:01;22.90;99.90
18773;DHT22;9515;50.810;4.418;2022-09-03T00:10:55;23.00;99.90
18773;DHT22;9515;50.810;4.418;2022-09-03T00:13:27;23.00;99.90
18773;DHT22;9515;50.810;4.418;2022-09-03T00:15:56;23.10;99.90
18773;DHT22;9515;50.810;4.418;2022-09-03T00:18:26;23.10;99.90
18773;DHT22;9515;50.810;4.418;2022-09-03T00:21:01;23.10;99.90
18773;DHT22;9515;50.810;4.418;2022-09-03T00:23:34;23.10;99.90
18773;DHT22;9515;50.810;4.418;2022-09-03T00:31:36;23.00;99.90
18773;DHT22;9515;50.810;4.418;2022-09-03T00:34:18;22.60;99.90
18773;DHT22;9515;50.810;4.418;2022-09-03T00:36:46;22.50;99.90
18773;DHT22;9515;50.810;4.418;2022-09-03T00:39:17;21.90;99.90
18773;DHT22;9515;50.810;4.418;2022-09-03T00:42:18;21.60;99.90
18773;DHT22;9515;50.810;4.418;2022-09-03T00:47:44;21.90;99.90
18773;DHT22;9515;50.810;4.418;2022-09-03T01:17:55;23.00;99.90
18773;DHT22;9515;50.810;4.418;2022-09-03T01:42:32;23.20;99.90
18773;DHT22;9515;50.810;4.418;2022-09-03T01:50:33;23.40;99.90
18773;DHT22;9515;50.810;4.418;2022-09-03T02:04:26;23.30;99.90
18773;DHT22;9515;50.810;4.418;2022-09-03T02:06:55;23.30;99.90
18773;DHT22;9515;50.810;4.418;2022-09-03T02:09:22;23.30;99.90
18773;DHT22;9515;50.810;4.418;2022-09-03T02:12:06;23.30;99.90
18773;DHT22;9515;50.810;4.418;2022-09-03T02:14:33;23.20;99.90
18773;DHT22;9515;50.810;4.418;2022-09-03T02:17:01;23.30;99.90
18773;DHT22;9515;50.810;4.418;2022-09-03T02:19:27;23.30;99.90
18773;DHT22;9515;50.810;4.418;2022-09-03T02:21:55;23.20;99.90
18773;DHT22;9515;50.810;4.418;2022-09-03T02:24:22;23.20;99.90
18773;DHT22;9515;50.810;4.418;2022-09-03T02:26:48;23.30;99.90
18773;DHT22;9515;50.810;4.418;2022-09-03T02:29:15;23.30;99.90
18773;DHT22;9515;50.810;4.418;2022-09-03T02:31:42;23.30;99.90
18773;DHT22;9515;50.810;4.418;2022-09-03T02:34:08;23.30;99.90
18773;DHT22;9515;50.810;4.418;2022-09-03T02:36:37;23.30;99.90
18773;DHT22;9515;50.810;4.418;2022-09-03T02:39:04;23.20;99.90
18773;DHT22;9515;50.810;4.418;2022-09-03T02:41:30;23.20;99.90
18773;DHT22;9515;50.810;4.418;2022-09-03T02:44:26;23.20;99.90
18773;DHT22;9515;50.810;4.418;2022-09-03T02:47:03;23.10;99.90
18773;DHT22;9515;50.810;4.418;2022-09-03T02:49:30;23.10;99.90
18773;DHT22;9515;50.810;4.418;2022-09-03T02:51:58;23.00;99.90
18773;DHT22;9515;50.810;4.418;2022-09-03T02:54:26;22.70;99.90
18773;DHT22;9515;50.810;4.418;2022-09-03T02:56:52;22.60;99.90
18773;DHT22;9515;50.810;4.418;2022-09-03T02:59:18;22.60;99.90
18773;DHT22;9515;50.810;4.418;2022-09-03T03:01:44;22.70;99.90
18773;DHT22;9515;50.810;4.418;2022-09-03T03:04:09;22.70;99.90
18773;DHT22;9515;50.810;4.418;2022-09-03T03:06:35;22.80;99.90
18773;DHT22;9515;50.810;4.418;2022-09-03T03:09:01;22.80;99.90
18773;DHT22;9515;50.810;4.418;2022-09-03T03:11:28;22.80;99.90
18773;DHT22;9515;50.810;4.418;2022-09-03T03:13:55;22.70;99.90
18773;DHT22;9515;50.810;4.418;2022-09-03T03:16:20;22.70;99.90
18773;DHT22;9515;50.810;4.418;2022-09-03T03:18:46;22.30;99.90
18773;DHT22;9515;50.810;4.418;2022-09-03T03:21:14;22.00;99.90
18773;DHT22;9515;50.810;4.418;2022-09-03T03:23:40;21.90;99.90
18773;DHT22;9515;50.810;4.418;2022-09-03T03:26:08;21.40;99.90
18773;DHT22;9515;50.810;4.418;2022-09-03T03:28:34;21.50;99.90
18773;DHT22;9515;50.810;4.418;2022-09-03T03:31:11;21.70;99.90
18773;DHT22;9515;50.810;4.418;2022-09-03T03:33:38;21.10;99.90
18773;DHT22;9515;50.810;4.418;2022-09-03T03:36:06;21.40;99.90
18773;DHT22;9515;50.810;4.418;2022-09-03T03:38:32;21.30;99.90
18773;DHT22;9515;50.810;4.418;2022-09-03T03:40:58;21.50;99.90
18773;DHT22;9515;50.810;4.418;2022-09-03T03:43:24;21.40;99.90
18773;DHT22;9515;50.810;4.418;2022-09-03T03:45:57;21.10;99.90
18773;DHT22;9515;50.810;4.418;2022-09-03T03:48:23;21.00;99.90
18773;DHT22;9515;50.810;4.418;2022-09-03T03:50:50;20.90;99.90
18773;DHT22;9515;50.810;4.418;2022-09-03T03:53:15;20.60;99.90
18773;DHT22;9515;50.810;4.418;2022-09-03T03:55:41;20.40;99.90
18773;DHT22;9515;50.810;4.418;2022-09-03T03:58:07;20.10;99.90
18773;DHT22;9515;50.810;4.418;2022-09-03T04:00:32;20.00;99.90
18773;DHT22;9515;50.810;4.418;2022-09-03T04:03:03;19.90;99.90
18773;DHT22;9515;50.810;4.418;2022-09-03T04:05:29;20.00;99.90
18773;DHT22;9515;50.810;4.418;2022-09-03T04:07:54;20.20;99.90
18773;DHT22;9515;50.810;4.418;2022-09-03T04:10:21;20.30;99.90
18773;DHT22;9515;50.810;4.418;2022-09-03T04:12:46;20.30;99.90
18773;DHT22;9515;50.810;4.418;2022-09-03T04:15:12;20.30;99.90
18773;DHT22;9515;50.810;4.418;2022-09-03T04:17:37;20.00;99.90
18773;DHT22;9515;50.810;4.418;2022-09-03T04:20:04;20.00;99.90
18773;DHT22;9515;50.810;4.418;2022-09-03T04:22:30;20.00;99.90
18773;DHT22;9515;50.810;4.418;2022-09-03T04:24:55;20.10;99.90
18773;DHT22;9515;50.810;4.418;2022-09-03T04:27:21;20.10;99.90
18773;DHT22;9515;50.810;4.418;2022-09-03T04:29:47;20.20;99.90
18773;DHT22;9515;50.810;4.418;2022-09-03T04:32:12;20.20;99.90
18773;DHT22;9515;50.810;4.418;2022-09-03T04:34:57;20.30;99.90
18773;DHT22;9515;50.810;4.418;2022-09-03T04:37:22;20.30;99.90
18773;DHT22;9515;50.810;4.418;2022-09-03T04:40:25;20.10;99.90
18773;DHT22;9515;50.810;4.418;2022-09-03T04:42:56;19.70;99.90
18773;DHT22;9515;50.810;4.418;2022-09-03T04:45:22;19.50;99.90
18773;DHT22;9515;50.810;4.418;2022-09-03T04:47:57;19.50;99.90
18773;DHT22;9515;50.810;4.418;2022-09-03T04:50:23;19.70;99.90
18773;DHT22;9515;50.810;4.418;2022-09-03T04:52:49;19.80;99.90
18773;DHT22;9515;50.810;4.418;2022-09-03T04:55:15;19.60;99.90
18773;DHT22;9515;50.810;4.418;2022-09-03T04:57:41;19.70;99.90
18773;DHT22;9515;50.810;4.418;2022-09-03T05:00:08;19.70;99.90
18773;DHT22;9515;50.810;4.418;2022-09-03T05:02:35;19.40;99.90
18773;DHT22;9515;50.810;4.418;2022-09-03T05:05:01;19.40;99.90
18773;DHT22;9515;50.810;4.418;2022-09-03T05:07:27;19.20;99.90
18773;DHT22;9515;50.810;4.418;2022-09-03T05:10:07;19.40;99.90
18773;DHT22;9515;50.810;4.418;2022-09-03T05:12:33;19.70;99.90
18773;DHT22;9515;50.810;4.418;2022-09-03T05:14:59;20.00;99.90
18773;DHT22;9515;50.810;4.418;2022-09-03T05:17:26;20.00;99.90
18773;DHT22;9515;50.810;4.418;2022-09-03T05:19:51;20.20;99.90
18773;DHT22;9515;50.810;4.418;2022-09-03T05:22:18;20.30;99.90
18773;DHT22;9515;50.810;4.418;2022-09-03T05:24:48;20.30;99.90
18773;DHT22;9515;50.810;4.418;2022-09-03T05:27:15;20.20;99.90
18773;DHT22;9515;50.810;4.418;2022-09-03T05:29:44;20.10;99.90
18773;DHT22;9515;50.810;4.418;2022-09-03T05:32:11;20.20;99.90
18773;DHT22;9515;50.810;4.418;2022-09-03T05:34:44;20.10;99.90
18773;DHT22;9515;50.810;4.418;2022-09-03T05:37:10;20.10;99.90
18773;DHT22;9515;50.810;4.418;2022-09-03T05:39:36;20.20;99.90
18773;DHT22;9515;50.810;4.418;2022-09-03T05:42:02;20.40;99.90
18773;DHT22;9515;50.810;4.418;2022-09-03T05:44:28;20.60;99.90
18773;DHT22;9515;50.810;4.418;2022-09-03T05:46:54;20.60;99.90
18773;DHT22;9515;50.810;4.418;2022-09-03T05:49:20;20.70;99.90
18773;DHT22;9515;50.810;4.418;2022-09-03T05:51:45;20.00;99.90
18773;DHT22;9515;50.810;4.418;2022-09-03T05:54:11;20.00;99.90
18773;DHT22;9515;50.810;4.418;2022-09-03T05:56:38;20.10;99.90
18773;DHT22;9515;50.810;4.418;2022-09-03T05:59:06;20.20;99.90
18773;DHT22;9515;50.810;4.418;2022-09-03T06:01:44;20.30;99.90
18773;DHT22;9515;50.810;4.418;2022-09-03T06:04:13;20.20;99.90
18773;DHT22;9515;50.810;4.418;2022-09-03T06:06:44;20.30;99.90
18773;DHT22;9515;50.810;4.418;2022-09-03T06:09:15;20.10;99.90
18773;DHT22;9515;50.810;4.418;2022-09-03T06:11:42;19.80;99.90
18773;DHT22;9515;50.810;4.418;2022-09-03T06:14:11;19.80;99.90
18773;DHT22;9515;50.810;4.418;2022-09-03T06:16:41;20.10;99.90
18773;DHT22;9515;50.810;4.418;2022-09-03T06:19:08;20.10;99.90
18773;DHT22;9515;50.810;4.418;2022-09-03T06:21:39;20.30;99.90
18773;DHT22;9515;50.810;4.418;2022-09-03T06:24:11;20.40;99.90
18773;DHT22;9515;50.810;4.418;2022-09-03T06:26:38;20.70;99.90
18773;DHT22;9515;50.810;4.418;2022-09-03T06:29:04;20.40;99.90
18773;DHT22;9515;50.810;4.418;2022-09-03T06:31:30;20.30;99.90
18773;DHT22;9515;50.810;4.418;2022-09-03T06:33:56;20.40;99.90
18773;DHT22;9515;50.810;4.418;2022-09-03T06:36:23;20.70;99.90
18773;DHT22;9515;50.810;4.418;2022-09-03T06:38:53;20.90;99.90
18773;DHT22;9515;50.810;4.418;2022-09-03T06:41:22;20.90;99.90
18773;DHT22;9515;50.810;4.418;2022-09-03T06:43:51;20.90;99.90
18773;DHT22;9515;50.810;4.418;2022-09-03T06:46:20;20.80;99.90
18773;DHT22;9515;50.810;4.418;2022-09-03T06:48:46;20.90;99.90
18773;DHT22;9515;50.810;4.418;2022-09-03T06:51:17;21.30;99.90
18773;DHT22;9515;50.810;4.418;2022-09-03T06:53:45;21.70;99.90
18773;DHT22;9515;50.810;4.418;2022-09-03T06:56:14;21.80;99.90
18773;DHT22;9515;50.810;4.418;2022-09-03T06:58:46;22.00;99.90
18773;DHT22;9515;50.810;4.418;2022-09-03T07:03:40;21.80;99.90
18773;DHT22;9515;50.810;4.418;2022-09-03T07:06:17;22.00;99.90
18773;DHT22;9515;50.810;4.418;2022-09-03T07:08:44;22.20;99.90
18773;DHT22;9515;50.810;4.418;2022-09-03T07:11:13;21.90;99.90
18773;DHT22;9515;50.810;4.418;2022-09-03T07:13:45;21.60;99.90
18773;DHT22;9515;50.810;4.418;2022-09-03T07:16:13;21.60;99.90
18773;DHT22;9515;50.810;4.418;2022-09-03T07:18:39;21.70;99.90
18773;DHT22;9515;50.810;4.418;2022-09-03T07:21:07;21.70;99.90
18773;DHT22;9515;50.810;4.418;2022-09-03T07:23:34;21.80;99.90
18773;DHT22;9515;50.810;4.418;2022-09-03T07:26:03;21.90;99.90
18773;DHT22;9515;50.810;4.418;2022-09-03T07:28:29;22.10;99.90
18773;DHT22;9515;50.810;4.418;2022-09-03T07:31:07;22.30;99.90
18773;DHT22;9515;50.810;4.418;2022-09-03T07:33:33;22.30;99.90
18773;DHT22;9515;50.810;4.418;2022-09-03T07:38:31;22.30;99.90
18773;DHT22;9515;50.810;4.418;2022-09-03T07:41:01;22.40;99.90
18773;DHT22;9515;50.810;4.418;2022-09-03T07:43:27;22.70;99.90
18773;DHT22;9515;50.810;4.418;2022-09-03T07:45:54;22.70;99.90
18773;DHT22;9515;50.810;4.418;2022-09-03T07:48:21;22.70;99.90
18773;DHT22;9515;50.810;4.418;2022-09-03T07:50:47;22.80;99.90
18773;DHT22;9515;50.810;4.418;2022-09-03T07:53:15;22.90;99.90
18773;DHT22;9515;50.810;4.418;2022-09-03T07:55:42;23.10;99.90
18773;DHT22;9515;50.810;4.418;2022-09-03T07:58:08;23.20;99.90
18773;DHT22;9515;50.810;4.418;2022-09-03T08:00:36;23.00;99.90
18773;DHT22;9515;50.810;4.418;2022-09-03T08:03:01;22.60;99.90
18773;DHT22;9515;50.810;4.418;2022-09-03T08:05:32;22.70;99.90
18773;DHT22;9515;50.810;4.418;2022-09-03T08:08:03;22.60;99.90
18773;DHT22;9515;50.810;4.418;2022-09-03T08:10:29;22.90;99.90
18773;DHT22;9515;50.810;4.418;2022-09-03T08:12:58;23.30;99.90
18773;DHT22;9515;50.810;4.418;2022-09-03T08:15:25;23.30;99.90
18773;DHT22;9515;50.810;4.418;2022-09-03T08:17:51;23.40;99.90
18773;DHT22;9515;50.810;4.418;2022-09-03T08:20:18;23.40;99.90
18773;DHT22;9515;50.810;4.418;2022-09-03T08:22:44;23.80;99.90
18773;DHT22;9515;50.810;4.418;2022-09-03T08:25:09;24.30;99.90
18773;DHT22;9515;50.810;4.418;2022-09-03T08:27:35;24.30;99.90
18773;DHT22;9515;50.810;4.418;2022-09-03T08:30:00;24.20;99.90
18773;DHT22;9515;50.810;4.418;2022-09-03T08:32:28;24.30;99.90
18773;DHT22;9515;50.810;4.418;2022-09-03T08:34:54;24.70;99.90
18773;DHT22;9515;50.810;4.418;2022-09-03T08:37:19;24.90;99.90
18773;DHT22;9515;50.810;4.418;2022-09-03T08:39:45;25.10;99.90
18773;DHT22;9515;50.810;4.418;2022-09-03T08:42:17;25.40;99.90
18773;DHT22;9515;50.810;4.418;2022-09-03T08:45:05;25.50;99.90
18773;DHT22;9515;50.810;4.418;2022-09-03T08:47:43;25.30;99.90
18773;DHT22;9515;50.810;4.418;2022-09-03T08:50:27;25.40;99.90
18773;DHT22;9515;50.810;4.418;2022-09-03T08:58:19;26.50;99.90
18773;DHT22;9515;50.810;4.418;2022-09-03T09:00:53;26.70;99.90
18773;DHT22;9515;50.810;4.418;2022-09-03T09:09:34;26.50;99.90
18773;DHT22;9515;50.810;4.418;2022-09-03T09:12:08;26.50;99.90
18773;DHT22;9515;50.810;4.418;2022-09-03T09:23:07;26.40;99.90
18773;DHT22;9515;50.810;4.418;2022-09-03T09:25:48;26.90;99.90
18773;DHT22;9515;50.810;4.418;2022-09-03T09:28:22;26.70;99.90
18773;DHT22;9515;50.810;4.418;2022-09-03T09:30:50;26.60;99.90
18773;DHT22;9515;50.810;4.418;2022-09-03T09:33:17;26.90;99.90
18773;DHT22;9515;50.810;4.418;2022-09-03T09:35:44;27.20;99.90
18773;DHT22;9515;50.810;4.418;2022-09-03T09:38:11;27.20;99.90
18773;DHT22;9515;50.810;4.418;2022-09-03T09:40:42;26.70;99.90
18773;DHT22;9515;50.810;4.418;2022-09-03T09:43:13;26.90;99.90
18773;DHT22;9515;50.810;4.418;2022-09-03T09:45:45;26.30;99.90
18773;DHT22;9515;50.810;4.418;2022-09-03T09:50:45;25.90;99.90
18773;DHT22;9515;50.810;4.418;2022-09-03T09:53:12;25.70;99.90
18773;DHT22;9515;50.810;4.418;2022-09-03T09:55:54;25.70;99.90
18773;DHT22;9515;50.810;4.418;2022-09-03T09:58:21;26.20;99.90
18773;DHT22;9515;50.810;4.418;2022-09-03T10:01:21;25.60;99.90
18773;DHT22;9515;50.810;4.418;2022-09-03T10:03:55;26.00;99.90
18773;DHT22;9515;50.810;4.418;2022-09-03T10:06:23;26.20;99.90
18773;DHT22;9515;50.810;4.418;2022-09-03T10:09:15;26.20;99.90
18773;DHT22;9515;50.810;4.418;2022-09-03T10:12:29;26.60;99.90
18773;DHT22;9515;50.810;4.418;2022-09-03T10:14:38;26.90;99.90
18773;DHT22;9515;50.810;4.418;2022-09-03T10:17:22;26.80;99.90
18773;DHT22;9515;50.810;4.418;2022-09-03T10:20:10;26.80;99.90
18773;DHT22;9515;50.810;4.418;2022-09-03T10:23:06;27.20;99.90
18773;DHT22;9515;50.810;4.418;2022-09-03T10:25:42;27.20;99.90
18773;DHT22;9515;50.810;4.418;2022-09-03T10:28:14;27.00;99.90
18773;DHT22;9515;50.810;4.418;2022-09-03T10:33:26;27.80;99.90
18773;DHT22;9515;50.810;4.418;2022-09-03T10:38:39;29.20;99.90
18773;DHT22;9515;50.810;4.418;2022-09-03T10:44:03;30.10;99.90
18773;DHT22;9515;50.810;4.418;2022-09-03T10:46:55;30.30;99.90
18773;DHT22;9515;50.810;4.418;2022-09-03T10:52:25;31.80;99.90
18773;DHT22;9515;50.810;4.418;2022-09-03T10:55:19;33.00;99.90
18773;DHT22;9515;50.810;4.418;2022-09-03T10:58:07;33.30;99.90
18773;DHT22;9515;50.810;4.418;2022-09-03T11:00:40;34.50;99.90
18773;DHT22;9515;50.810;4.418;2022-09-03T11:11:29;39.80;99.90
18773;DHT22;9515;50.810;4.418;2022-09-03T11:14:01;40.50;99.90
18773;DHT22;9515;50.810;4.418;2022-09-03T11:16:33;39.90;99.90
18773;DHT22;9515;50.810;4.418;2022-09-03T11:19:23;39.30;99.90
18773;DHT22;9515;50.810;4.418;2022-09-03T11:21:49;39.60;99.90
18773;DHT22;9515;50.810;4.418;2022-09-03T11:24:22;37.70;99.90
18773;DHT22;9515;50.810;4.418;2022-09-03T11:29:49;34.00;99.90
18773;DHT22;9515;50.810;4.418;2022-09-03T11:32:46;32.60;99.90
18773;DHT22;9515;50.810;4.418;2022-09-03T11:35:24;31.90;99.90
18773;DHT22;9515;50.810;4.418;2022-09-03T11:37:54;31.10;99.90
18773;DHT22;9515;50.810;4.418;2022-09-03T11:40:28;30.10;99.90
18773;DHT22;9515;50.810;4.418;2022-09-03T11:45:34;29.90;99.90
18773;DHT22;9515;50.810;4.418;2022-09-03T11:48:01;29.90;99.90
18773;DHT22;9515;50.810;4.418;2022-09-03T11:50:31;30.40;99.90
18773;DHT22;9515;50.810;4.418;2022-09-03T11:53:26;30.30;99.90
18773;DHT22;9515;50.810;4.418;2022-09-03T11:58:30;30.10;99.90
18773;DHT22;9515;50.810;4.418;2022-09-03T12:01:02;29.80;99.90
18773;DHT22;9515;50.810;4.418;2022-09-03T12:03:43;30.10;99.90
18773;DHT22;9515;50.810;4.418;2022-09-03T12:06:48;29.70;99.90
18773;DHT22;9515;50.810;4.418;2022-09-03T12:12:31;31.60;99.90
18773;DHT22;9515;50.810;4.418;2022-09-03T12:20:00;32.70;99.90
18773;DHT22;9515;50.810;4.418;2022-09-03T12:22:28;33.20;99.90
18773;DHT22;9515;50.810;4.418;2022-09-03T12:24:54;34.10;99.90
18773;DHT22;9515;50.810;4.418;2022-09-03T12:27:25;35.10;99.90
18773;DHT22;9515;50.810;4.418;2022-09-03T12:29:59;35.60;99.90
18773;DHT22;9515;50.810;4.418;2022-09-03T12:32:27;36.10;99.90
18773;DHT22;9515;50.810;4.418;2022-09-03T12:34:55;35.90;99.90
18773;DHT22;9515;50.810;4.418;2022-09-03T12:37:25;34.90;99.90
18773;DHT22;9515;50.810;4.418;2022-09-03T12:39:55;35.50;99.90
18773;DHT22;9515;50.810;4.418;2022-09-03T12:44:50;37.10;99.90
18773;DHT22;9515;50.810;4.418;2022-09-03T12:47:19;36.80;99.90
18773;DHT22;9515;50.810;4.418;2022-09-03T12:49:48;36.10;99.90
18773;DHT22;9515;50.810;4.418;2022-09-03T12:52:23;35.70;99.90
18773;DHT22;9515;50.810;4.418;2022-09-03T12:57:41;35.00;99.90
18773;DHT22;9515;50.810;4.418;2022-09-03T13:00:12;34.90;99.90
18773;DHT22;9515;50.810;4.418;2022-09-03T13:02:48;34.60;99.90
18773;DHT22;9515;50.810;4.418;2022-09-03T13:05:22;34.10;99.90
18773;DHT22;9515;50.810;4.418;2022-09-03T13:07:54;34.30;99.90
18773;DHT22;9515;50.810;4.418;2022-09-03T13:10:29;34.40;99.90
18773;DHT22;9515;50.810;4.418;2022-09-03T13:13:14;35.00;99.90
18773;DHT22;9515;50.810;4.418;2022-09-03T13:15:55;35.30;99.90
18773;DHT22;9515;50.810;4.418;2022-09-03T13:24:08;34.30;99.90
18773;DHT22;9515;50.810;4.418;2022-09-03T13:32:43;34.80;99.90
18773;DHT22;9515;50.810;4.418;2022-09-03T13:40:51;35.70;99.90
18773;DHT22;9515;50.810;4.418;2022-09-03T13:43:36;37.20;99.90
18773;DHT22;9515;50.810;4.418;2022-09-03T13:46:07;38.40;99.50
18773;DHT22;9515;50.810;4.418;2022-09-03T13:48:40;39.60;99.20
18773;DHT22;9515;50.810;4.418;2022-09-03T13:59:05;37.90;98.90
18773;DHT22;9515;50.810;4.418;2022-09-03T14:02:06;37.20;99.60
18773;DHT22;9515;50.810;4.418;2022-09-03T14:07:24;36.20;99.90
18773;DHT22;9515;50.810;4.418;2022-09-03T14:13:01;35.10;99.90
18773;DHT22;9515;50.810;4.418;2022-09-03T14:19:00;34.70;99.90
18773;DHT22;9515;50.810;4.418;2022-09-03T14:21:56;33.00;99.90
18773;DHT22;9515;50.810;4.418;2022-09-03T14:27:12;34.60;99.90
18773;DHT22;9515;50.810;4.418;2022-09-03T14:30:02;36.20;99.90
18773;DHT22;9515;50.810;4.418;2022-09-03T14:40:39;35.30;99.90
18773;DHT22;9515;50.810;4.418;2022-09-03T14:43:29;33.80;99.90
18773;DHT22;9515;50.810;4.418;2022-09-03T14:46:18;32.40;99.90
18773;DHT22;9515;50.810;4.418;2022-09-03T14:51:38;30.90;99.90
18773;DHT22;9515;50.810;4.418;2022-09-03T14:57:10;30.50;99.90
18773;DHT22;9515;50.810;4.418;2022-09-03T15:07:47;30.40;99.90
18773;DHT22;9515;50.810;4.418;2022-09-03T15:12:54;30.50;99.90
18773;DHT22;9515;50.810;4.418;2022-09-03T15:15:29;30.20;99.90
18773;DHT22;9515;50.810;4.418;2022-09-03T15:18:28;30.20;99.90
18773;DHT22;9515;50.810;4.418;2022-09-03T15:21:48;30.30;99.90
18773;DHT22;9515;50.810;4.418;2022-09-03T15:27:05;30.50;99.90
18773;DHT22;9515;50.810;4.418;2022-09-03T15:43:38;30.50;99.90
18773;DHT22;9515;50.810;4.418;2022-09-03T15:46:31;30.70;99.90
18773;DHT22;9515;50.810;4.418;2022-09-03T15:49:03;30.60;99.90
18773;DHT22;9515;50.810;4.418;2022-09-03T15:51:34;30.50;99.90
18773;DHT22;9515;50.810;4.418;2022-09-03T15:56:54;29.90;99.90
18773;DHT22;9515;50.810;4.418;2022-09-03T15:59:37;29.70;99.90
18773;DHT22;9515;50.810;4.418;2022-09-03T16:02:22;29.60;99.90
18773;DHT22;9515;50.810;4.418;2022-09-03T16:10:19;29.40;99.90
18773;DHT22;9515;50.810;4.418;2022-09-03T16:13:08;29.30;99.90
18773;DHT22;9515;50.810;4.418;2022-09-03T16:15:48;29.30;99.90
18773;DHT22;9515;50.810;4.418;2022-09-03T16:18:26;28.90;99.90
18773;DHT22;9515;50.810;4.418;2022-09-03T16:21:12;28.70;99.90
18773;DHT22;9515;50.810;4.418;2022-09-03T16:24:08;28.70;99.90
18773;DHT22;9515;50.810;4.418;2022-09-03T16:26:41;28.80;99.90
18773;DHT22;9515;50.810;4.418;2022-09-03T16:29:15;28.90;99.90
18773;DHT22;9515;50.810;4.418;2022-09-03T16:37:49;29.10;99.90
18773;DHT22;9515;50.810;4.418;2022-09-03T16:42:44;29.30;99.90
18773;DHT22;9515;50.810;4.418;2022-09-03T16:48:05;29.00;99.90
18773;DHT22;9515;50.810;4.418;2022-09-03T16:59:08;28.90;99.90
18773;DHT22;9515;50.810;4.418;2022-09-03T17:01:54;28.80;99.90
18773;DHT22;9515;50.810;4.418;2022-09-03T17:04:38;28.70;99.90
18773;DHT22;9515;50.810;4.418;2022-09-03T17:07:24;28.00;99.90
18773;DHT22;9515;50.810;4.418;2022-09-03T17:15:32;27.50;99.90
18773;DHT22;9515;50.810;4.418;2022-09-03T17:20:50;27.50;99.90
18773;DHT22;9515;50.810;4.418;2022-09-03T17:23:46;27.50;99.90
18773;DHT22;9515;50.810;4.418;2022-09-03T17:26:24;27.30;99.90
18773;DHT22;9515;50.810;4.418;2022-09-03T17:34:58;27.00;99.90
18773;DHT22;9515;50.810;4.418;2022-09-03T17:40:24;25.60;99.90
18773;DHT22;9515;50.810;4.418;2022-09-03T17:43:04;25.70;99.90
18773;DHT22;9515;50.810;4.418;2022-09-03T17:48:38;25.40;99.90
18773;DHT22;9515;50.810;4.418;2022-09-03T17:51:29;25.50;99.90
18773;DHT22;9515;50.810;4.418;2022-09-03T17:54:11;25.80;99.90
18773;DHT22;9515;50.810;4.418;2022-09-03T18:07:23;25.60;99.90
18773;DHT22;9515;50.810;4.418;2022-09-03T18:10:01;25.50;99.90
18773;DHT22;9515;50.810;4.418;2022-09-03T18:12:44;25.60;99.90
18773;DHT22;9515;50.810;4.418;2022-09-03T18:15:21;25.60;99.90
18773;DHT22;9515;50.810;4.418;2022-09-03T18:17:58;25.30;99.90
18773;DHT22;9515;50.810;4.418;2022-09-03T18:20:27;25.30;99.90
18773;DHT22;9515;50.810;4.418;2022-09-03T18:27:00;25.20;99.90
18773;DHT22;9515;50.810;4.418;2022-09-03T18:29:53;24.90;99.90
18773;DHT22;9515;50.810;4.418;2022-09-03T18:32:39;25.00;99.90
18773;DHT22;9515;50.810;4.418;2022-09-03T18:35:24;24.60;99.90
18773;DHT22;9515;50.810;4.418;2022-09-03T18:38:12;24.60;99.90
18773;DHT22;9515;50.810;4.418;2022-09-03T18:53:10;23.90;99.90
18773;DHT22;9515;50.810;4.418;2022-09-03T19:01:55;23.80;99.90
18773;DHT22;9515;50.810;4.418;2022-09-03T19:08:18;23.50;99.90
18773;DHT22;9515;50.810;4.418;2022-09-03T19:14:22;23.80;99.90
18773;DHT22;9515;50.810;4.418;2022-09-03T19:20:27;23.50;99.90
18773;DHT22;9515;50.810;4.418;2022-09-03T19:23:13;24.00;99.90
18773;DHT22;9515;50.810;4.418;2022-09-03T19:26:04;24.30;99.90
18773;DHT22;9515;50.810;4.418;2022-09-03T19:28:52;24.50;99.90
18773;DHT22;9515;50.810;4.418;2022-09-03T19:31:55;24.60;99.90
18773;DHT22;9515;50.810;4.418;2022-09-03T19:35:02;24.60;99.90
18773;DHT22;9515;50.810;4.418;2022-09-03T19:38:12;24.70;99.90
18773;DHT22;9515;50.810;4.418;2022-09-03T19:44:17;24.50;99.90
18773;DHT22;9515;50.810;4.418;2022-09-03T19:47:06;24.40;99.90
18773;DHT22;9515;50.810;4.418;2022-09-03T19:50:16;24.20;99.90
18773;DHT22;9515;50.810;4.418;2022-09-03T19:53:07;24.20;99.90
18773;DHT22;9515;50.810;4.418;2022-09-03T19:55:57;24.30;99.90
18773;DHT22;9515;50.810;4.418;2022-09-03T19:58:53;24.30;99.90
18773;DHT22;9515;50.810;4.418;2022-09-03T20:01:38;24.30;99.90
18773;DHT22;9515;50.810;4.418;2022-09-03T20:04:38;24.40;99.90
18773;DHT22;9515;50.810;4.418;2022-09-03T20:07:24;24.40;99.90
18773;DHT22;9515;50.810;4.418;2022-09-03T20:10:11;24.40;99.90
18773;DHT22;9515;50.810;4.418;2022-09-03T20:13:08;24.30;99.90
18773;DHT22;9515;50.810;4.418;2022-09-03T20:35:12;23.80;99.90
18773;DHT22;9515;50.810;4.418;2022-09-03T20:40:50;23.80;99.90
18773;DHT22;9515;50.810;4.418;2022-09-03T20:43:25;23.70;99.90
18773;DHT22;9515;50.810;4.418;2022-09-03T20:51:16;23.50;99.90
18773;DHT22;9515;50.810;4.418;2022-09-03T20:53:58;23.60;99.90
18773;DHT22;9515;50.810;4.418;2022-09-03T20:56:35;23.60;99.90
18773;DHT22;9515;50.810;4.418;2022-09-03T21:01:57;23.30;99.90
18773;DHT22;9515;50.810;4.418;2022-09-03T21:24:17;21.90;99.90
18773;DHT22;9515;50.810;4.418;2022-09-03T21:26:48;21.60;99.90
18773;DHT22;9515;50.810;4.418;2022-09-03T21:32:03;21.60;99.90
18773;DHT22;9515;50.810;4.418;2022-09-03T21:34:36;21.50;99.90
18773;DHT22;9515;50.810;4.418;2022-09-03T21:37:05;21.80;99.90
18773;DHT22;9515;50.810;4.418;2022-09-03T21:42:29;21.80;99.90
18773;DHT22;9515;50.810;4.418;2022-09-03T21:47:52;21.70;99.90
18773;DHT22;9515;50.810;4.418;2022-09-03T21:50:28;21.80;99.90
18773;DHT22;9515;50.810;4.418;2022-09-03T21:53:06;21.80;99.90
18773;DHT22;9515;50.810;4.418;2022-09-03T22:01:03;22.00;99.90
18773;DHT22;9515;50.810;4.418;2022-09-03T22:03:31;21.80;99.90
18773;DHT22;9515;50.810;4.418;2022-09-03T22:06:09;22.00;99.90
18773;DHT22;9515;50.810;4.418;2022-09-03T22:08:40;22.00;99.90
18773;DHT22;9515;50.810;4.418;2022-09-03T22:16:30;21.90;99.90
18773;DHT22;9515;50.810;4.418;2022-09-03T22:18:57;21.80;99.90
18773;DHT22;9515;50.810;4.418;2022-09-03T22:21:31;21.60;99.90
18773;DHT22;9515;50.810;4.418;2022-09-03T22:28:03;21.60;99.90
18773;DHT22;9515;50.810;4.418;2022-09-03T22:30:09;21.50;99.90
18773;DHT22;9515;50.810;4.418;2022-09-03T22:38:08;21.20;99.90
18773;DHT22;9515;50.810;4.418;2022-09-03T22:44:13;21.90;99.90
18773;DHT22;9515;50.810;4.418;2022-09-03T22:52:48;22.40;99.90
18773;DHT22;9515;50.810;4.418;2022-09-03T22:55:19;22.10;99.90
18773;DHT22;9515;50.810;4.418;2022-09-03T22:58:04;22.00;99.90
18773;DHT22;9515;50.810;4.418;2022-09-03T23:00:39;21.80;99.90
18773;DHT22;9515;50.810;4.418;2022-09-03T23:03:18;21.80;99.90
18773;DHT22;9515;50.810;4.418;2022-09-03T23:06:02;21.80;99.90
18773;DHT22;9515;50.810;4.418;2022-09-03T23:08:34;21.60;99.90
18773;DHT22;9515;50.810;4.418;2022-09-03T23:13:50;21.80;99.90
18773;DHT22;9515;50.810;4.418;2022-09-03T23:16:34;21.70;99.90